createdAt,value
2017-10-02T00:00:25.979Z,12.27
2017-10-02T00:00:59.868Z,11.63
2017-10-02T00:01:33.591Z,12.60
2017-10-02T00:02:08.072Z,12.27
2017-10-02T00:02:41.802Z,12.32
2017-10-02T00:03:16.302Z,13.45
2017-10-02T00:03:50.796Z,13.02
2017-10-02T00:04:24.522Z,11.68
2017-10-02T00:04:58.256Z,12.37
2017-10-02T00:05:32.305Z,13.23
2017-10-02T00:06:06.048Z,12.30
2017-10-02T00:06:39.765Z,12.35
2017-10-02T00:07:14.244Z,12.45
2017-10-02T00:07:47.996Z,12.40
2017-10-02T00:08:21.722Z,12.43
2017-10-02T00:08:55.446Z,12.23
2017-10-02T00:09:29.928Z,13.55
2017-10-02T00:10:03.301Z,11.82
2017-10-02T00:10:37.366Z,12.40
2017-10-02T00:11:11.088Z,11.98
2017-10-02T00:11:44.817Z,12.00
2017-10-02T00:12:19.317Z,12.15
2017-10-02T00:12:53.134Z,12.48
2017-10-02T00:13:26.875Z,11.52
2017-10-02T00:14:00.589Z,11.65
2017-10-02T00:14:34.305Z,12.55
2017-10-02T00:15:08.796Z,11.50
2017-10-02T00:15:42.824Z,12.95
2017-10-02T00:16:16.575Z,12.73
2017-10-02T00:16:50.331Z,10.82
2017-10-02T00:17:24.064Z,11.68
2017-10-02T00:17:57.778Z,13.10
2017-10-02T00:18:32.266Z,12.85
2017-10-02T00:19:05.984Z,12.80
2017-10-02T00:19:39.701Z,13.30
2017-10-02T00:20:13.425Z,13.93
2017-10-02T00:20:47.485Z,12.85
2017-10-02T00:21:21.199Z,12.45
2017-10-02T00:21:54.912Z,13.20
2017-10-02T00:22:28.725Z,11.88
2017-10-02T00:23:03.240Z,12.23
2017-10-02T00:23:37.728Z,12.60
2017-10-02T00:24:11.444Z,12.60
2017-10-02T00:24:45.183Z,12.60
2017-10-02T00:25:18.921Z,14.18
2017-10-02T00:25:54.045Z,13.00
2017-10-02T00:26:28.543Z,13.98
2017-10-02T00:27:03.032Z,12.85
2017-10-02T00:27:36.753Z,12.40
2017-10-02T00:28:10.467Z,13.20
2017-10-02T00:28:44.184Z,14.02
2017-10-02T00:29:17.907Z,12.43
2017-10-02T00:29:52.388Z,12.75
2017-10-02T00:30:26.105Z,11.93
2017-10-02T00:31:00.957Z,12.37
2017-10-02T00:31:34.697Z,13.32
2017-10-02T00:32:08.417Z,12.45
2017-10-02T00:32:43.208Z,13.30
2017-10-02T00:33:16.826Z,13.32
2017-10-02T00:33:51.301Z,13.05
2017-10-02T00:34:25.024Z,12.95
2017-10-02T00:34:59.504Z,13.77
2017-10-02T00:35:33.225Z,14.60
2017-10-02T00:36:07.341Z,13.07
2017-10-02T00:36:41.063Z,13.45
2017-10-02T00:37:14.784Z,13.82
2017-10-02T00:37:48.531Z,13.80
2017-10-02T00:38:22.268Z,13.27
2017-10-02T00:38:56.001Z,13.70
2017-10-02T00:39:29.719Z,13.23
2017-10-02T00:40:03.437Z,13.45
2017-10-02T00:40:36.818Z,13.65
2017-10-02T00:41:10.853Z,14.60
2017-10-02T00:41:44.575Z,13.00
2017-10-02T00:42:17.952Z,12.93
2017-10-02T00:42:51.717Z,14.50
2017-10-02T00:43:25.085Z,13.38
2017-10-02T00:43:59.581Z,14.18
2017-10-02T00:44:34.077Z,13.02
2017-10-02T00:45:07.806Z,14.13
2017-10-02T00:45:41.544Z,14.05
2017-10-02T00:46:15.217Z,13.23
2017-10-02T00:46:50.675Z,13.62
2017-10-02T00:47:24.381Z,12.50
2017-10-02T00:47:58.875Z,12.07
2017-10-02T00:48:32.260Z,12.55
2017-10-02T00:49:06.007Z,14.15
2017-10-02T00:49:39.966Z,13.10
2017-10-02T00:50:14.449Z,14.32
2017-10-02T00:50:47.476Z,12.55
2017-10-02T00:51:20.796Z,12.95
2017-10-02T00:51:54.173Z,13.30
2017-10-02T00:52:27.208Z,12.93
2017-10-02T00:53:00.233Z,12.85
2017-10-02T00:53:33.256Z,13.98
2017-10-02T00:54:06.972Z,12.75
2017-10-02T00:54:40.685Z,13.32
2017-10-02T00:55:14.068Z,12.93
2017-10-02T00:55:47.782Z,12.63
2017-10-02T00:56:21.193Z,12.25
2017-10-02T00:56:55.664Z,16.25
2017-10-02T00:57:29.388Z,15.10
2017-10-02T00:58:03.632Z,22.25
2017-10-02T00:58:37.334Z,16.50
2017-10-02T00:59:10.704Z,14.57
2017-10-02T00:59:44.430Z,16.92
2017-10-02T01:00:17.804Z,15.98
2017-10-02T01:00:51.525Z,13.43
2017-10-02T01:01:25.536Z,12.80
2017-10-02T01:01:59.260Z,13.35
2017-10-02T01:02:32.995Z,14.23
2017-10-02T01:03:07.477Z,13.02
2017-10-02T01:03:41.190Z,13.75
2017-10-02T01:04:15.669Z,12.48
2017-10-02T01:04:49.395Z,11.82
2017-10-02T01:05:23.598Z,12.80
2017-10-02T01:05:57.390Z,12.45
2017-10-02T01:06:31.913Z,13.45
2017-10-02T01:07:05.645Z,13.02
2017-10-02T01:07:39.361Z,13.57
2017-10-02T01:08:13.894Z,12.40
2017-10-02T01:08:48.368Z,14.35
2017-10-02T01:09:22.086Z,13.52
2017-10-02T01:09:55.884Z,12.20
2017-10-02T01:10:30.368Z,14.00
2017-10-02T01:11:04.082Z,13.07
2017-10-02T01:11:38.832Z,12.00
2017-10-02T01:12:12.192Z,14.25
2017-10-02T01:12:45.917Z,14.02
2017-10-02T01:13:19.294Z,12.07
2017-10-02T01:13:53.006Z,14.23
2017-10-02T01:14:26.732Z,13.00
2017-10-02T01:15:01.225Z,13.52
2017-10-02T01:15:35.718Z,12.68
2017-10-02T01:16:09.436Z,13.70
2017-10-02T01:16:44.221Z,13.70
2017-10-02T01:17:17.591Z,13.30
2017-10-02T01:17:51.305Z,14.77
2017-10-02T01:18:25.018Z,13.65
2017-10-02T01:18:59.504Z,14.00
2017-10-02T01:19:33.216Z,13.30
2017-10-02T01:20:07.704Z,13.68
2017-10-02T01:20:41.421Z,13.95
2017-10-02T01:21:15.175Z,13.25
2017-10-02T01:21:49.221Z,13.35
2017-10-02T01:22:22.940Z,13.48
2017-10-02T01:22:56.671Z,14.90
2017-10-02T01:23:30.393Z,14.50
2017-10-02T01:24:04.111Z,12.85
2017-10-02T01:24:37.830Z,13.77
2017-10-02T01:25:12.876Z,14.05
2017-10-02T01:25:47.362Z,13.50
2017-10-02T01:26:21.081Z,14.82
2017-10-02T01:26:55.913Z,14.23
2017-10-02T01:27:29.640Z,13.77
2017-10-02T01:28:03.373Z,13.25
2017-10-02T01:28:37.851Z,13.85
2017-10-02T01:29:11.679Z,13.52
2017-10-02T01:29:46.157Z,12.00
2017-10-02T01:30:19.865Z,13.60
2017-10-02T01:30:54.367Z,13.68
2017-10-02T01:31:28.077Z,14.38
2017-10-02T01:32:02.913Z,13.60
2017-10-02T01:32:36.636Z,13.05
2017-10-02T01:33:10.354Z,14.20
2017-10-02T01:33:44.091Z,13.85
2017-10-02T01:34:17.797Z,14.23
2017-10-02T01:34:51.546Z,14.27
2017-10-02T01:35:26.028Z,14.20
2017-10-02T01:35:59.745Z,14.02
2017-10-02T01:36:34.224Z,15.15
2017-10-02T01:37:07.952Z,13.95
2017-10-02T01:37:42.431Z,14.95
2017-10-02T01:38:16.157Z,14.50
2017-10-02T01:38:49.881Z,14.40
2017-10-02T01:39:23.603Z,12.68
2017-10-02T01:39:57.324Z,15.05
2017-10-02T01:40:31.803Z,14.52
2017-10-02T01:41:05.516Z,14.80
2017-10-02T01:41:39.673Z,13.95
2017-10-02T01:42:53.604Z,14.45
2017-10-02T01:43:27.326Z,15.32
2017-10-02T01:44:01.035Z,15.38
2017-10-02T01:44:35.509Z,15.02
2017-10-02T01:45:09.212Z,14.82
2017-10-02T01:45:42.926Z,15.25
2017-10-02T01:46:17.403Z,15.90
2017-10-02T01:46:51.116Z,16.37
2017-10-02T01:47:25.951Z,15.25
2017-10-02T01:47:59.663Z,15.93
2017-10-02T01:48:33.373Z,14.55
2017-10-02T01:49:07.093Z,16.80
2017-10-02T01:49:41.581Z,14.48
2017-10-02T01:50:15.287Z,15.90
2017-10-02T01:50:48.991Z,15.75
2017-10-02T01:51:23.460Z,15.02
2017-10-02T01:51:57.204Z,15.77
2017-10-02T01:52:32.037Z,15.95
2017-10-02T01:53:05.763Z,15.10
2017-10-02T01:53:39.473Z,14.95
2017-10-02T01:54:13.183Z,15.32
2017-10-02T01:54:47.665Z,15.40
2017-10-02T01:55:21.373Z,15.52
2017-10-02T01:55:55.085Z,15.30
2017-10-02T01:56:29.561Z,14.75
2017-10-02T01:57:03.272Z,15.50
2017-10-02T01:57:38.105Z,15.32
2017-10-02T01:58:11.811Z,15.75
2017-10-02T01:58:45.545Z,15.45
2017-10-02T01:59:19.245Z,16.00
2017-10-02T01:59:53.721Z,17.15
2017-10-02T02:00:27.439Z,16.05
2017-10-02T02:01:01.143Z,16.02
2017-10-02T02:01:35.624Z,15.60
2017-10-02T02:02:09.332Z,16.20
2017-10-02T02:02:43.359Z,16.80
2017-10-02T02:03:17.832Z,15.85
2017-10-02T02:03:51.549Z,15.95
2017-10-02T02:04:26.022Z,16.12
2017-10-02T02:04:59.732Z,17.25
2017-10-02T02:05:33.448Z,16.95
2017-10-02T02:06:07.152Z,17.35
2017-10-02T02:06:40.857Z,16.60
2017-10-02T02:07:14.556Z,16.15
2017-10-02T02:07:48.580Z,16.02
2017-10-02T02:08:22.290Z,16.52
2017-10-02T02:08:56.777Z,17.52
2017-10-02T02:09:30.486Z,17.25
2017-10-02T02:10:04.965Z,17.55
2017-10-02T02:10:38.679Z,17.15
2017-10-02T02:11:12.385Z,16.25
2017-10-02T02:11:46.860Z,16.12
2017-10-02T02:12:20.578Z,16.40
2017-10-02T02:12:55.407Z,17.80
2017-10-02T02:13:29.141Z,16.33
2017-10-02T02:14:02.848Z,18.33
2017-10-02T02:14:36.566Z,17.25
2017-10-02T02:15:10.848Z,15.40
2017-10-02T02:15:44.552Z,17.42
2017-10-02T02:16:19.037Z,18.65
2017-10-02T02:16:52.755Z,17.08
2017-10-02T02:17:27.258Z,18.52
2017-10-02T02:18:01.284Z,20.10
2017-10-02T02:18:35.002Z,18.10
2017-10-02T02:19:08.720Z,20.05
2017-10-02T02:19:42.427Z,17.48
2017-10-02T02:20:16.139Z,16.77
2017-10-02T02:20:49.853Z,18.30
2017-10-02T02:21:23.577Z,19.65
2017-10-02T02:21:57.283Z,19.33
2017-10-02T02:22:31.006Z,19.50
2017-10-02T02:23:05.109Z,18.30
2017-10-02T02:23:38.813Z,19.85
2017-10-02T02:24:12.535Z,19.50
2017-10-02T02:24:46.272Z,19.10
2017-10-02T02:25:20.054Z,19.80
2017-10-02T02:25:54.544Z,20.55
2017-10-02T02:26:28.273Z,20.30
2017-10-02T02:27:01.995Z,20.80
2017-10-02T02:27:35.728Z,19.33
2017-10-02T02:28:10.533Z,19.70
2017-10-02T02:28:44.255Z,21.95
2017-10-02T02:29:17.966Z,19.33
2017-10-02T02:29:51.673Z,20.15
2017-10-02T02:30:25.398Z,20.95
2017-10-02T02:30:59.132Z,20.65
2017-10-02T02:31:32.852Z,21.30
2017-10-02T02:32:06.594Z,20.75
2017-10-02T02:32:40.311Z,22.00
2017-10-02T02:33:14.392Z,20.65
2017-10-02T02:33:48.169Z,20.77
2017-10-02T02:34:22.677Z,20.27
2017-10-02T02:34:57.289Z,20.92
2017-10-02T02:35:31.821Z,21.58
2017-10-02T02:36:05.538Z,19.95
2017-10-02T02:36:39.265Z,20.88
2017-10-02T02:37:12.986Z,21.70
2017-10-02T02:37:46.704Z,23.08
2017-10-02T02:38:20.861Z,19.87
2017-10-02T02:38:55.340Z,21.92
2017-10-02T02:39:29.163Z,22.35
2017-10-02T02:40:03.318Z,22.15
2017-10-02T02:40:37.037Z,23.02
2017-10-02T02:41:10.763Z,23.60
2017-10-02T02:41:44.491Z,21.17
2017-10-02T02:42:18.221Z,22.50
2017-10-02T02:42:51.936Z,23.27
2017-10-02T02:43:25.668Z,22.75
2017-10-02T02:43:59.398Z,23.17
2017-10-02T02:44:33.881Z,22.70
2017-10-02T02:45:07.703Z,21.65
2017-10-02T02:45:42.184Z,22.67
2017-10-02T02:46:15.922Z,22.85
2017-10-02T02:46:49.633Z,23.30
2017-10-02T02:47:23.368Z,23.08
2017-10-02T02:47:57.080Z,23.95
2017-10-02T02:48:31.601Z,23.55
2017-10-02T02:49:05.357Z,22.00
2017-10-02T02:49:39.853Z,23.55
2017-10-02T02:50:13.581Z,23.80
2017-10-02T02:50:48.059Z,24.50
2017-10-02T02:51:21.794Z,23.70
2017-10-02T02:51:55.582Z,22.80
2017-10-02T02:52:29.318Z,24.12
2017-10-02T02:53:03.022Z,25.10
2017-10-02T02:53:37.048Z,24.15
2017-10-02T02:54:11.519Z,24.52
2017-10-02T02:54:45.246Z,24.50
2017-10-02T02:55:19.726Z,24.37
2017-10-02T02:55:53.444Z,22.92
2017-10-02T02:56:27.432Z,23.87
2017-10-02T02:57:01.141Z,26.55
2017-10-02T02:57:34.860Z,24.85
2017-10-02T02:58:08.617Z,25.70
2017-10-02T02:58:42.739Z,24.75
2017-10-02T02:59:16.456Z,26.85
2017-10-02T02:59:50.160Z,26.75
2017-10-02T03:00:23.984Z,24.65
2017-10-02T03:00:58.650Z,25.70
2017-10-02T03:01:32.369Z,26.60
2017-10-02T03:02:06.085Z,26.67
2017-10-02T03:02:40.568Z,26.55
2017-10-02T03:03:14.276Z,24.17
2017-10-02T03:03:49.112Z,23.62
2017-10-02T03:04:22.852Z,24.90
2017-10-02T03:04:56.678Z,24.50
2017-10-02T03:05:31.174Z,24.37
2017-10-02T03:06:04.200Z,24.65
2017-10-02T03:06:37.927Z,26.62
2017-10-02T03:07:11.954Z,26.30
2017-10-02T03:07:46.442Z,24.30
2017-10-02T03:08:20.154Z,25.42
2017-10-02T03:08:54.921Z,25.75
2017-10-02T03:09:28.638Z,25.75
2017-10-02T03:10:02.348Z,27.85
2017-10-02T03:10:36.833Z,26.27
2017-10-02T03:11:10.546Z,26.20
2017-10-02T03:11:45.020Z,25.75
2017-10-02T03:12:18.744Z,26.67
2017-10-02T03:12:53.228Z,27.67
2017-10-02T03:13:26.960Z,24.92
2017-10-02T03:14:01.057Z,24.50
2017-10-02T03:14:34.784Z,26.60
2017-10-02T03:15:08.509Z,25.75
2017-10-02T03:15:41.882Z,25.33
2017-10-02T03:16:15.592Z,26.05
2017-10-02T03:16:48.956Z,26.15
2017-10-02T03:17:22.667Z,23.95
2017-10-02T03:17:58.060Z,26.48
2017-10-02T03:18:31.779Z,27.83
2017-10-02T03:19:05.889Z,26.20
2017-10-02T03:19:40.359Z,27.95
2017-10-02T03:20:14.072Z,25.45
2017-10-02T03:20:47.788Z,26.35
2017-10-02T03:21:21.576Z,27.45
2017-10-02T03:21:56.048Z,28.35
2017-10-02T03:22:29.775Z,26.95
2017-10-02T03:23:04.260Z,28.08
2017-10-02T03:23:37.981Z,27.75
2017-10-02T03:24:12.388Z,26.15
2017-10-02T03:24:46.857Z,26.40
2017-10-02T03:25:20.559Z,28.58
2017-10-02T03:25:54.255Z,26.62
2017-10-02T03:26:27.970Z,26.30
2017-10-02T03:27:01.687Z,27.70
2017-10-02T03:27:35.404Z,26.65
2017-10-02T03:28:09.119Z,26.85
2017-10-02T03:28:43.604Z,27.70
2017-10-02T03:29:17.644Z,26.35
2017-10-02T03:29:51.372Z,28.65
2017-10-02T03:30:25.083Z,27.58
2017-10-02T03:30:58.793Z,27.30
2017-10-02T03:31:32.512Z,27.95
2017-10-02T03:32:06.224Z,28.10
2017-10-02T03:32:39.940Z,27.48
2017-10-02T03:33:13.317Z,28.58
2017-10-02T03:33:47.042Z,28.60
2017-10-02T03:34:21.067Z,27.05
2017-10-02T03:34:54.789Z,28.00
2017-10-02T03:35:28.512Z,28.17
2017-10-02T03:36:02.323Z,28.35
2017-10-02T03:36:36.810Z,27.17
2017-10-02T03:37:10.507Z,26.37
2017-10-02T03:37:44.233Z,27.40
2017-10-02T03:38:17.951Z,27.20
2017-10-02T03:38:51.653Z,26.52
2017-10-02T03:39:25.725Z,26.10
2017-10-02T03:39:59.434Z,26.35
2017-10-02T03:40:33.132Z,25.98
2017-10-02T03:41:06.840Z,27.35
2017-10-02T03:41:40.561Z,27.15
2017-10-02T03:42:15.036Z,26.67
2017-10-02T03:42:48.740Z,28.20
2017-10-02T03:43:22.457Z,26.33
2017-10-02T03:43:56.180Z,28.12
2017-10-02T03:44:30.246Z,28.70
2017-10-02T03:45:04.721Z,25.95
2017-10-02T03:45:38.467Z,27.98
2017-10-02T03:46:12.221Z,27.27
2017-10-02T03:46:46.726Z,27.35
2017-10-02T03:47:21.192Z,28.17
2017-10-02T03:47:54.908Z,28.17
2017-10-02T03:48:28.623Z,26.10
2017-10-02T03:49:03.117Z,27.48
2017-10-02T03:49:37.959Z,27.27
2017-10-02T03:50:11.664Z,26.20
2017-10-02T03:50:45.378Z,27.35
2017-10-02T03:51:19.094Z,27.87
2017-10-02T03:51:52.808Z,29.70
2017-10-02T03:52:27.292Z,27.35
2017-10-02T03:53:01.005Z,27.20
2017-10-02T03:53:35.130Z,27.05
2017-10-02T03:54:08.835Z,26.70
2017-10-02T03:54:42.903Z,28.83
2017-10-02T03:55:17.029Z,26.48
2017-10-02T03:55:50.394Z,26.85
2017-10-02T03:56:24.108Z,27.00
2017-10-02T03:56:57.808Z,27.45
2017-10-02T03:57:33.765Z,26.10
2017-10-02T03:58:07.305Z,28.85
2017-10-02T03:58:44.307Z,27.48
2017-10-02T03:59:27.044Z,27.65
2017-10-02T04:00:01.062Z,26.67
2017-10-02T04:00:35.557Z,27.55
2017-10-02T04:01:08.734Z,26.83
2017-10-02T04:01:42.866Z,28.60
2017-10-02T04:02:16.633Z,26.73
2017-10-02T04:02:51.116Z,28.98
2017-10-02T04:03:24.644Z,27.50
2017-10-02T04:03:58.365Z,27.60
2017-10-02T04:04:32.115Z,28.00
2017-10-02T04:05:05.812Z,27.67
2017-10-02T04:05:39.538Z,29.87
2017-10-02T04:06:13.386Z,26.70
2017-10-02T04:06:47.854Z,27.00
2017-10-02T04:07:21.572Z,26.90
2017-10-02T04:07:55.287Z,27.30
2017-10-02T04:08:29.036Z,26.70
2017-10-02T04:09:02.565Z,28.70
2017-10-02T04:09:36.447Z,28.17
2017-10-02T04:10:10.753Z,28.17
2017-10-02T04:10:44.301Z,27.37
2017-10-02T04:11:18.026Z,28.98
2017-10-02T04:11:52.520Z,25.60
2017-10-02T04:12:26.250Z,26.85
2017-10-02T04:13:00.192Z,29.02
2017-10-02T04:13:33.713Z,26.00
2017-10-02T04:14:08.192Z,29.40
2017-10-02T04:14:41.905Z,27.95
2017-10-02T04:15:15.932Z,25.95
2017-10-02T04:15:49.655Z,26.70
2017-10-02T04:16:23.198Z,29.55
2017-10-02T04:16:56.899Z,30.42
2017-10-02T04:17:30.616Z,30.30
2017-10-02T04:18:04.331Z,28.27
2017-10-02T04:18:38.048Z,27.98
2017-10-02T04:19:12.535Z,28.77
2017-10-02T04:19:46.248Z,29.10
2017-10-02T04:20:21.076Z,31.65
2017-10-02T04:20:54.797Z,30.77
2017-10-02T04:21:28.515Z,30.55
2017-10-02T04:22:02.237Z,28.48
2017-10-02T04:22:36.716Z,29.75
2017-10-02T04:23:10.534Z,29.60
2017-10-02T04:23:45.016Z,29.25
2017-10-02T04:24:18.716Z,30.12
2017-10-02T04:24:52.438Z,31.00
2017-10-02T04:25:26.538Z,29.50
2017-10-02T04:26:00.248Z,27.08
2017-10-02T04:26:34.005Z,29.35
2017-10-02T04:27:08.481Z,27.60
2017-10-02T04:27:42.200Z,28.58
2017-10-02T04:28:16.678Z,28.58
2017-10-02T04:28:50.404Z,28.52
2017-10-02T04:29:24.875Z,31.25
2017-10-02T04:29:58.589Z,28.95
2017-10-02T04:30:32.714Z,31.75
2017-10-02T04:31:06.438Z,30.23
2017-10-02T04:31:40.150Z,30.20
2017-10-02T04:32:13.864Z,29.98
2017-10-02T04:32:47.580Z,28.65
2017-10-02T04:33:21.304Z,27.92
2017-10-02T04:33:55.016Z,29.23
2017-10-02T04:34:28.731Z,29.45
2017-10-02T04:35:03.204Z,28.00
2017-10-02T04:35:37.272Z,30.30
2017-10-02T04:36:10.980Z,30.00
2017-10-02T04:36:44.722Z,29.92
2017-10-02T04:37:19.204Z,29.90
2017-10-02T04:37:52.922Z,30.27
2017-10-02T04:38:27.407Z,30.08
2017-10-02T04:39:01.117Z,31.50
2017-10-02T04:39:34.828Z,31.02
2017-10-02T04:40:08.550Z,30.12
2017-10-02T04:40:42.394Z,31.83
2017-10-02T04:41:16.885Z,30.37
2017-10-02T04:41:50.696Z,30.45
2017-10-02T04:42:25.176Z,31.05
2017-10-02T04:42:58.879Z,31.55
2017-10-02T04:43:32.591Z,29.67
2017-10-02T04:44:07.068Z,31.35
2017-10-02T04:44:40.772Z,30.90
2017-10-02T04:45:14.485Z,31.45
2017-10-02T04:45:49.390Z,31.27
2017-10-02T04:46:23.867Z,28.98
2017-10-02T04:46:57.573Z,31.65
2017-10-02T04:47:30.950Z,32.88
2017-10-02T04:48:04.658Z,30.08
2017-10-02T04:48:38.368Z,29.90
2017-10-02T04:49:12.112Z,33.65
2017-10-02T04:49:45.877Z,32.72
2017-10-02T04:50:19.588Z,32.08
2017-10-02T04:50:53.630Z,31.20
2017-10-02T04:51:28.105Z,33.13
2017-10-02T04:52:01.826Z,33.17
2017-10-02T04:52:36.335Z,32.42
2017-10-02T04:53:10.817Z,32.95
2017-10-02T04:53:44.533Z,31.87
2017-10-02T04:54:18.659Z,32.58
2017-10-02T04:54:52.367Z,31.08
2017-10-02T04:55:26.066Z,33.20
2017-10-02T04:56:00.149Z,32.53
2017-10-02T04:56:33.864Z,32.70
2017-10-02T04:57:07.571Z,32.53
2017-10-02T04:57:41.276Z,32.65
2017-10-02T04:58:15.753Z,32.75
2017-10-02T04:58:49.472Z,33.72
2017-10-02T04:59:23.189Z,32.05
2017-10-02T04:59:56.968Z,32.58
2017-10-02T05:00:31.471Z,33.08
2017-10-02T05:01:06.250Z,31.73
2017-10-02T05:01:39.964Z,31.50
2017-10-02T05:02:13.688Z,32.22
2017-10-02T05:02:47.431Z,31.27
2017-10-02T05:03:21.156Z,31.08
2017-10-02T05:03:55.640Z,32.30
2017-10-02T05:04:29.164Z,33.20
2017-10-02T05:05:03.633Z,32.33
2017-10-02T05:05:38.649Z,30.62
2017-10-02T05:06:12.681Z,32.83
2017-10-02T05:06:47.165Z,31.73
2017-10-02T05:07:20.876Z,31.05
2017-10-02T05:07:55.353Z,31.70
2017-10-02T05:08:29.125Z,29.83
2017-10-02T05:09:02.828Z,32.53
2017-10-02T05:09:36.538Z,32.00
2017-10-02T05:10:10.260Z,32.13
2017-10-02T05:10:43.985Z,32.70
2017-10-02T05:11:18.056Z,29.60
2017-10-02T05:11:52.524Z,33.08
2017-10-02T05:12:26.254Z,30.40
2017-10-02T05:12:59.972Z,31.33
2017-10-02T05:13:33.672Z,30.90
2017-10-02T05:14:07.388Z,29.58
2017-10-02T05:14:41.095Z,31.60
2017-10-02T05:15:15.576Z,31.02
2017-10-02T05:15:49.299Z,30.10
2017-10-02T05:16:28.770Z,32.70
2017-10-02T05:17:02.506Z,32.42
2017-10-02T05:17:36.988Z,31.80
2017-10-02T05:18:10.702Z,33.90
2017-10-02T05:18:45.178Z,29.70
2017-10-02T05:19:18.907Z,32.75
2017-10-02T05:19:53.399Z,31.75
2017-10-02T05:20:27.111Z,29.87
2017-10-02T05:21:01.580Z,32.53
2017-10-02T05:21:35.579Z,31.80
2017-10-02T05:22:09.405Z,31.42
2017-10-02T05:22:43.893Z,31.80
2017-10-02T05:23:17.608Z,32.00
2017-10-02T05:23:52.089Z,30.92
2017-10-02T05:24:25.804Z,31.30
2017-10-02T05:25:00.272Z,30.50
2017-10-02T05:25:33.983Z,30.58
2017-10-02T05:26:07.710Z,30.75
2017-10-02T05:26:41.812Z,30.65
2017-10-02T05:27:15.521Z,30.08
2017-10-02T05:27:49.221Z,30.62
2017-10-02T05:28:22.940Z,29.52
2017-10-02T05:28:56.784Z,30.98
2017-10-02T05:29:30.503Z,29.60
2017-10-02T05:30:04.235Z,29.17
2017-10-02T05:30:38.733Z,30.48
2017-10-02T05:31:12.453Z,29.02
2017-10-02T05:31:46.569Z,29.10
2017-10-02T05:32:20.288Z,29.60
2017-10-02T05:32:54.006Z,30.67
2017-10-02T05:33:27.725Z,29.65
2017-10-02T05:34:01.436Z,31.30
2017-10-02T05:34:35.163Z,30.27
2017-10-02T05:35:08.880Z,28.35
2017-10-02T05:35:43.389Z,29.63
2017-10-02T05:36:17.872Z,29.42
2017-10-02T05:36:51.907Z,29.15
2017-10-02T05:37:25.624Z,29.67
2017-10-02T05:37:59.345Z,29.20
2017-10-02T05:38:33.066Z,28.15
2017-10-02T05:39:07.577Z,27.40
2017-10-02T05:39:42.061Z,28.17
2017-10-02T05:40:15.781Z,28.20
2017-10-02T05:40:50.283Z,28.17
2017-10-02T05:41:24.768Z,29.42
2017-10-02T05:41:58.811Z,26.15
2017-10-02T05:42:32.534Z,27.02
2017-10-02T05:43:06.251Z,26.62
2017-10-02T05:43:39.962Z,26.87
2017-10-02T05:44:14.442Z,28.52
2017-10-02T05:44:48.152Z,28.02
2017-10-02T05:45:22.656Z,26.85
2017-10-02T05:45:56.463Z,27.35
2017-10-02T05:46:30.943Z,27.90
2017-10-02T05:47:04.971Z,26.62
2017-10-02T05:47:39.434Z,26.90
2017-10-02T05:48:13.154Z,26.27
2017-10-02T05:48:46.865Z,26.50
2017-10-02T05:49:21.338Z,25.73
2017-10-02T05:49:55.044Z,27.85
2017-10-02T05:50:28.761Z,26.73
2017-10-02T05:51:03.256Z,25.73
2017-10-02T05:51:37.732Z,27.30
2017-10-02T05:52:11.792Z,26.75
2017-10-02T05:52:45.529Z,27.60
2017-10-02T05:53:19.238Z,26.20
2017-10-02T05:53:52.954Z,25.27
2017-10-02T05:54:26.685Z,26.70
2017-10-02T05:55:00.201Z,27.35
2017-10-02T05:55:33.900Z,25.90
2017-10-02T05:56:07.601Z,26.05
2017-10-02T05:56:42.079Z,26.95
2017-10-02T05:57:16.117Z,24.75
2017-10-02T05:57:49.833Z,26.33
2017-10-02T05:58:23.550Z,25.35
2017-10-02T05:58:57.266Z,24.75
2017-10-02T05:59:30.975Z,25.92
2017-10-02T06:00:03.996Z,25.02
2017-10-02T06:00:37.702Z,25.83
2017-10-02T06:01:11.400Z,24.90
2017-10-02T06:01:45.105Z,25.42
2017-10-02T06:02:19.943Z,25.48
2017-10-02T06:02:53.658Z,24.12
2017-10-02T06:03:27.364Z,24.90
2017-10-02T06:04:01.093Z,23.48
2017-10-02T06:04:35.578Z,24.70
2017-10-02T06:05:09.330Z,25.05
2017-10-02T06:05:43.036Z,24.58
2017-10-02T06:06:16.761Z,24.05
2017-10-02T06:06:50.467Z,25.15
2017-10-02T06:07:25.290Z,25.50
2017-10-02T06:07:59.024Z,24.45
2017-10-02T06:08:32.742Z,23.77
2017-10-02T06:09:06.459Z,24.48
2017-10-02T06:09:40.940Z,24.48
2017-10-02T06:10:14.661Z,24.08
2017-10-02T06:10:48.385Z,24.33
2017-10-02T06:11:22.117Z,23.42
2017-10-02T06:11:55.871Z,23.85
2017-10-02T06:12:29.940Z,25.15
2017-10-02T06:13:03.666Z,23.25
2017-10-02T06:13:37.386Z,22.30
2017-10-02T06:14:11.106Z,24.65
2017-10-02T06:14:45.581Z,23.52
2017-10-02T06:15:19.411Z,23.17
2017-10-02T06:15:53.153Z,22.73
2017-10-02T06:16:26.884Z,23.75
2017-10-02T06:17:01.365Z,22.35
2017-10-02T06:17:35.404Z,22.13
2017-10-02T06:18:09.127Z,23.08
2017-10-02T06:18:42.849Z,22.62
2017-10-02T06:19:16.590Z,23.30
2017-10-02T06:19:50.297Z,23.27
2017-10-02T06:20:24.017Z,21.92
2017-10-02T06:20:57.737Z,22.58
2017-10-02T06:21:32.228Z,23.00
2017-10-02T06:22:06.731Z,22.87
2017-10-02T06:22:40.761Z,21.30
2017-10-02T06:23:14.496Z,21.12
2017-10-02T06:23:48.211Z,22.48
2017-10-02T06:24:21.913Z,21.70
2017-10-02T06:24:56.398Z,22.20
2017-10-02T06:25:30.132Z,19.90
2017-10-02T06:26:03.880Z,20.50
2017-10-02T06:26:37.588Z,20.12
2017-10-02T06:27:11.299Z,21.50
2017-10-02T06:27:45.284Z,20.40
2017-10-02T06:28:19.769Z,21.55
2017-10-02T06:28:53.487Z,19.40
2017-10-02T06:29:27.980Z,21.42
2017-10-02T06:30:01.700Z,21.02
2017-10-02T06:30:35.424Z,19.75
2017-10-02T06:31:09.157Z,20.15
2017-10-02T06:31:44.044Z,20.20
2017-10-02T06:32:17.756Z,20.02
2017-10-02T06:32:51.794Z,19.80
2017-10-02T06:33:25.514Z,18.65
2017-10-02T06:33:59.249Z,21.35
2017-10-02T06:34:33.728Z,19.58
2017-10-02T06:35:07.441Z,20.83
2017-10-02T06:35:41.177Z,18.87
2017-10-02T06:36:14.948Z,18.58
2017-10-02T06:36:49.443Z,18.87
2017-10-02T06:37:23.926Z,18.83
2017-10-02T06:37:57.931Z,18.80
2017-10-02T06:38:33.218Z,20.73
2017-10-02T06:39:06.951Z,19.62
2017-10-02T06:39:40.735Z,20.52
2017-10-02T06:40:14.454Z,19.42
2017-10-02T06:40:48.933Z,18.70
2017-10-02T06:41:22.652Z,18.05
2017-10-02T06:41:57.150Z,19.42
2017-10-02T06:42:31.629Z,20.45
2017-10-02T06:43:05.680Z,20.30
2017-10-02T06:43:39.385Z,19.48
2017-10-02T06:44:13.100Z,19.65
2017-10-02T06:44:46.839Z,18.83
2017-10-02T06:45:21.324Z,19.08
2017-10-02T06:45:55.041Z,19.30
2017-10-02T06:46:29.524Z,18.25
2017-10-02T06:47:03.237Z,18.45
2017-10-02T06:47:38.238Z,19.30
2017-10-02T06:48:12.268Z,20.00
2017-10-02T06:48:46.746Z,18.55
2017-10-02T06:49:20.454Z,18.80
2017-10-02T06:49:54.938Z,18.65
2017-10-02T06:50:28.646Z,17.50
2017-10-02T06:51:03.161Z,17.15
2017-10-02T06:51:37.640Z,18.45
2017-10-02T06:52:11.360Z,18.85
2017-10-02T06:52:45.855Z,18.25
2017-10-02T06:53:19.869Z,17.80
2017-10-02T06:53:54.352Z,19.73
2017-10-02T06:54:28.084Z,19.15
2017-10-02T06:55:01.801Z,18.52
2017-10-02T06:55:35.520Z,18.37
2017-10-02T06:56:09.244Z,19.25
2017-10-02T06:56:43.747Z,19.50
2017-10-02T06:57:18.235Z,18.23
2017-10-02T06:57:51.961Z,17.73
2017-10-02T06:58:26.068Z,18.25
2017-10-02T06:58:59.837Z,16.98
2017-10-02T06:59:34.311Z,17.15
2017-10-02T07:00:07.841Z,17.23
2017-10-02T07:00:42.321Z,17.12
2017-10-02T07:01:16.054Z,18.23
2017-10-02T07:01:49.759Z,18.48
2017-10-02T07:02:23.472Z,17.12
2017-10-02T07:02:57.189Z,17.48
2017-10-02T07:03:31.212Z,17.55
2017-10-02T07:04:05.708Z,18.40
2017-10-02T07:04:39.521Z,18.52
2017-10-02T07:05:13.230Z,18.40
2017-10-02T07:05:46.596Z,17.12
2017-10-02T07:06:20.306Z,17.50
2017-10-02T07:06:54.021Z,17.23
2017-10-02T07:07:27.737Z,17.65
2017-10-02T07:08:01.457Z,16.20
2017-10-02T07:08:35.560Z,15.38
2017-10-02T07:09:09.276Z,16.35
2017-10-02T07:09:42.981Z,17.10
2017-10-02T07:10:16.811Z,17.42
2017-10-02T07:10:51.319Z,18.10
2017-10-02T07:11:25.797Z,16.40
2017-10-02T07:11:59.516Z,15.65
2017-10-02T07:12:34.000Z,16.12
2017-10-02T07:13:07.713Z,17.58
2017-10-02T07:13:42.469Z,15.82
2017-10-02T07:14:15.995Z,16.40
2017-10-02T07:14:49.708Z,16.85
2017-10-02T07:15:24.177Z,15.32
2017-10-02T07:15:57.893Z,16.50
2017-10-02T07:16:31.604Z,15.32
2017-10-02T07:17:06.081Z,15.48
2017-10-02T07:17:39.797Z,15.65
2017-10-02T07:18:14.268Z,16.23